sensor_id;sensor_type;location;lat;lon;timestamp;P1;durP1;ratioP1;P2;durP2;ratioP2
50429;SDS011;36359;41.556;-8.418;2023-03-24T00:00:18;6.75;;;1.63;;
50429;SDS011;36359;41.556;-8.418;2023-03-24T00:02:45;7.65;;;1.63;;
50429;SDS011;36359;41.556;-8.418;2023-03-24T00:05:14;6.80;;;1.90;;
50429;SDS011;36359;41.556;-8.418;2023-03-24T00:07:41;7.82;;;1.63;;
50429;SDS011;36359;41.556;-8.418;2023-03-24T00:10:11;5.53;;;1.85;;
50429;SDS011;36359;41.556;-8.418;2023-03-24T00:12:39;10.48;;;1.48;;
50429;SDS011;36359;41.556;-8.418;2023-03-24T00:15:08;8.48;;;2.63;;
50429;SDS011;36359;41.556;-8.418;2023-03-24T00:17:37;8.32;;;1.40;;
50429;SDS011;36359;41.556;-8.418;2023-03-24T00:20:08;9.85;;;2.05;;
50429;SDS011;36359;41.556;-8.418;2023-03-24T00:22:43;11.30;;;1.85;;
50429;SDS011;36359;41.556;-8.418;2023-03-24T00:25:12;11.32;;;2.92;;
50429;SDS011;36359;41.556;-8.418;2023-03-24T00:27:39;10.35;;;2.15;;
50429;SDS011;36359;41.556;-8.418;2023-03-24T00:30:06;15.98;;;2.35;;
50429;SDS011;36359;41.556;-8.418;2023-03-24T00:32:34;9.00;;;2.17;;
50429;SDS011;36359;41.556;-8.418;2023-03-24T00:35:04;7.50;;;1.65;;
50429;SDS011;36359;41.556;-8.418;2023-03-24T00:37:33;7.15;;;1.63;;
50429;SDS011;36359;41.556;-8.418;2023-03-24T00:40:05;7.85;;;1.90;;
50429;SDS011;36359;41.556;-8.418;2023-03-24T00:42:35;12.00;;;2.75;;
50429;SDS011;36359;41.556;-8.418;2023-03-24T00:45:02;8.27;;;1.85;;
50429;SDS011;36359;41.556;-8.418;2023-03-24T00:47:30;10.38;;;2.08;;
50429;SDS011;36359;41.556;-8.418;2023-03-24T00:50:05;7.97;;;1.70;;
50429;SDS011;36359;41.556;-8.418;2023-03-24T00:52:33;8.23;;;1.70;;
50429;SDS011;36359;41.556;-8.418;2023-03-24T00:54:59;7.30;;;1.90;;
50429;SDS011;36359;41.556;-8.418;2023-03-24T00:57:28;10.50;;;2.15;;
50429;SDS011;36359;41.556;-8.418;2023-03-24T01:00:00;8.82;;;2.03;;
50429;SDS011;36359;41.556;-8.418;2023-03-24T01:02:38;8.63;;;2.53;;
50429;SDS011;36359;41.556;-8.418;2023-03-24T01:05:05;10.85;;;2.15;;
50429;SDS011;36359;41.556;-8.418;2023-03-24T01:07:33;11.20;;;2.08;;
50429;SDS011;36359;41.556;-8.418;2023-03-24T01:09:59;9.05;;;2.00;;
50429;SDS011;36359;41.556;-8.418;2023-03-24T01:12:27;9.82;;;2.13;;
50429;SDS011;36359;41.556;-8.418;2023-03-24T01:15:08;5.10;;;1.55;;
50429;SDS011;36359;41.556;-8.418;2023-03-24T01:17:37;5.93;;;1.50;;
50429;SDS011;36359;41.556;-8.418;2023-03-24T01:20:03;5.55;;;1.67;;
50429;SDS011;36359;41.556;-8.418;2023-03-24T01:22:32;9.25;;;1.80;;
50429;SDS011;36359;41.556;-8.418;2023-03-24T01:25:05;7.50;;;1.60;;
50429;SDS011;36359;41.556;-8.418;2023-03-24T01:27:34;11.25;;;2.25;;
50429;SDS011;36359;41.556;-8.418;2023-03-24T01:30:02;8.13;;;2.05;;
50429;SDS011;36359;41.556;-8.418;2023-03-24T01:32:31;11.68;;;2.38;;
50429;SDS011;36359;41.556;-8.418;2023-03-24T01:34:57;7.05;;;1.55;;
50429;SDS011;36359;41.556;-8.418;2023-03-24T01:37:23;8.20;;;1.85;;
50429;SDS011;36359;41.556;-8.418;2023-03-24T01:39:49;7.57;;;1.40;;
50429;SDS011;36359;41.556;-8.418;2023-03-24T01:42:16;8.68;;;1.40;;
50429;SDS011;36359;41.556;-8.418;2023-03-24T01:44:45;6.05;;;1.48;;
50429;SDS011;36359;41.556;-8.418;2023-03-24T01:47:13;5.45;;;1.08;;
50429;SDS011;36359;41.556;-8.418;2023-03-24T01:52:11;5.10;;;1.00;;
50429;SDS011;36359;41.556;-8.418;2023-03-24T01:54:51;7.50;;;1.52;;
50429;SDS011;36359;41.556;-8.418;2023-03-24T02:00:24;5.28;;;0.80;;
50429;SDS011;36359;41.556;-8.418;2023-03-24T02:03:11;5.22;;;1.25;;
50429;SDS011;36359;41.556;-8.418;2023-03-24T02:05:49;3.63;;;0.80;;
50429;SDS011;36359;41.556;-8.418;2023-03-24T02:08:25;5.28;;;1.20;;
50429;SDS011;36359;41.556;-8.418;2023-03-24T02:10:56;3.47;;;0.52;;
50429;SDS011;36359;41.556;-8.418;2023-03-24T02:13:30;3.45;;;0.25;;
50429;SDS011;36359;41.556;-8.418;2023-03-24T02:26:43;0.93;;;0.10;;
50429;SDS011;36359;41.556;-8.418;2023-03-24T02:29:24;0.07;;;0.00;;
50429;SDS011;36359;41.556;-8.418;2023-03-24T02:40:43;1.52;;;0.10;;
50429;SDS011;36359;41.556;-8.418;2023-03-24T02:48:58;0.63;;;0.17;;
50429;SDS011;36359;41.556;-8.418;2023-03-24T02:51:54;3.60;;;0.30;;
50429;SDS011;36359;41.556;-8.418;2023-03-24T02:54:30;0.67;;;0.10;;
50429;SDS011;36359;41.556;-8.418;2023-03-24T02:57:04;0.30;;;0.10;;
50429;SDS011;36359;41.556;-8.418;2023-03-24T03:03:35;0.40;;;0.00;;
50429;SDS011;36359;41.556;-8.418;2023-03-24T03:06:08;0.45;;;0.10;;
50429;SDS011;36359;41.556;-8.418;2023-03-24T03:08:40;1.10;;;0.20;;
50429;SDS011;36359;41.556;-8.418;2023-03-24T03:11:07;1.63;;;0.10;;
50429;SDS011;36359;41.556;-8.418;2023-03-24T03:13:40;0.83;;;0.00;;
50429;SDS011;36359;41.556;-8.418;2023-03-24T03:16:18;0.80;;;0.10;;
50429;SDS011;36359;41.556;-8.418;2023-03-24T03:19:02;2.87;;;0.23;;
50429;SDS011;36359;41.556;-8.418;2023-03-24T03:21:35;1.83;;;0.40;;
50429;SDS011;36359;41.556;-8.418;2023-03-24T03:24:17;1.13;;;0.80;;
50429;SDS011;36359;41.556;-8.418;2023-03-24T03:27:04;2.28;;;1.48;;
50429;SDS011;36359;41.556;-8.418;2023-03-24T03:29:37;2.83;;;1.23;;
50429;SDS011;36359;41.556;-8.418;2023-03-24T03:32:06;1.27;;;0.55;;
50429;SDS011;36359;41.556;-8.418;2023-03-24T03:34:47;0.85;;;0.32;;
50429;SDS011;36359;41.556;-8.418;2023-03-24T03:37:43;1.55;;;0.30;;
50429;SDS011;36359;41.556;-8.418;2023-03-24T03:40:29;0.75;;;0.20;;
50429;SDS011;36359;41.556;-8.418;2023-03-24T03:43:16;1.85;;;0.32;;
50429;SDS011;36359;41.556;-8.418;2023-03-24T03:45:42;1.48;;;0.10;;
50429;SDS011;36359;41.556;-8.418;2023-03-24T03:48:09;0.95;;;0.20;;
50429;SDS011;36359;41.556;-8.418;2023-03-24T03:50:35;1.13;;;0.10;;
50429;SDS011;36359;41.556;-8.418;2023-03-24T03:53:05;0.43;;;0.10;;
50429;SDS011;36359;41.556;-8.418;2023-03-24T03:55:32;0.35;;;0.10;;
50429;SDS011;36359;41.556;-8.418;2023-03-24T03:58:03;0.57;;;0.10;;
50429;SDS011;36359;41.556;-8.418;2023-03-24T04:00:51;3.72;;;0.10;;
50429;SDS011;36359;41.556;-8.418;2023-03-24T04:08:50;0.32;;;0.10;;
50429;SDS011;36359;41.556;-8.418;2023-03-24T04:11:34;1.30;;;0.20;;
50429;SDS011;36359;41.556;-8.418;2023-03-24T04:20:11;0.65;;;0.30;;
50429;SDS011;36359;41.556;-8.418;2023-03-24T04:25:27;0.40;;;0.15;;
50429;SDS011;36359;41.556;-8.418;2023-03-24T04:28:04;0.90;;;0.28;;
50429;SDS011;36359;41.556;-8.418;2023-03-24T04:30:41;0.98;;;0.30;;
50429;SDS011;36359;41.556;-8.418;2023-03-24T04:33:22;0.77;;;0.30;;
50429;SDS011;36359;41.556;-8.418;2023-03-24T04:36:14;0.75;;;0.30;;
50429;SDS011;36359;41.556;-8.418;2023-03-24T04:39:11;1.75;;;0.43;;
50429;SDS011;36359;41.556;-8.418;2023-03-24T04:41:47;3.55;;;0.50;;
50429;SDS011;36359;41.556;-8.418;2023-03-24T04:44:23;3.35;;;0.82;;
50429;SDS011;36359;41.556;-8.418;2023-03-24T04:47:14;2.20;;;0.57;;
50429;SDS011;36359;41.556;-8.418;2023-03-24T04:50:15;1.58;;;0.57;;
50429;SDS011;36359;41.556;-8.418;2023-03-24T04:53:06;1.70;;;0.52;;
50429;SDS011;36359;41.556;-8.418;2023-03-24T04:58:19;1.65;;;0.50;;
50429;SDS011;36359;41.556;-8.418;2023-03-24T05:00:47;2.97;;;0.43;;
50429;SDS011;36359;41.556;-8.418;2023-03-24T05:03:14;1.98;;;0.38;;
50429;SDS011;36359;41.556;-8.418;2023-03-24T05:05:46;2.03;;;0.50;;
50429;SDS011;36359;41.556;-8.418;2023-03-24T05:08:15;2.05;;;0.30;;
50429;SDS011;36359;41.556;-8.418;2023-03-24T05:10:42;3.03;;;0.40;;
50429;SDS011;36359;41.556;-8.418;2023-03-24T05:13:08;2.00;;;0.28;;
50429;SDS011;36359;41.556;-8.418;2023-03-24T05:15:56;1.60;;;0.30;;
50429;SDS011;36359;41.556;-8.418;2023-03-24T05:18:30;1.23;;;0.20;;
50429;SDS011;36359;41.556;-8.418;2023-03-24T05:20:56;1.88;;;0.30;;
50429;SDS011;36359;41.556;-8.418;2023-03-24T05:23:23;6.03;;;0.60;;
50429;SDS011;36359;41.556;-8.418;2023-03-24T05:25:49;2.67;;;0.35;;
50429;SDS011;36359;41.556;-8.418;2023-03-24T05:28:17;3.53;;;0.30;;
50429;SDS011;36359;41.556;-8.418;2023-03-24T05:30:43;3.22;;;0.50;;
50429;SDS011;36359;41.556;-8.418;2023-03-24T05:33:27;2.25;;;0.35;;
50429;SDS011;36359;41.556;-8.418;2023-03-24T05:35:54;3.40;;;0.50;;
50429;SDS011;36359;41.556;-8.418;2023-03-24T05:38:19;1.77;;;0.43;;
50429;SDS011;36359;41.556;-8.418;2023-03-24T05:40:48;2.40;;;1.67;;
50429;SDS011;36359;41.556;-8.418;2023-03-24T05:43:17;4.82;;;4.03;;
50429;SDS011;36359;41.556;-8.418;2023-03-24T05:45:54;5.85;;;3.50;;
50429;SDS011;36359;41.556;-8.418;2023-03-24T05:48:27;3.85;;;2.33;;
50429;SDS011;36359;41.556;-8.418;2023-03-24T05:51:13;3.55;;;0.88;;
50429;SDS011;36359;41.556;-8.418;2023-03-24T05:53:39;3.78;;;0.60;;
50429;SDS011;36359;41.556;-8.418;2023-03-24T05:56:05;3.15;;;0.52;;
50429;SDS011;36359;41.556;-8.418;2023-03-24T05:59:02;3.17;;;0.73;;
50429;SDS011;36359;41.556;-8.418;2023-03-24T06:01:48;2.88;;;0.40;;
50429;SDS011;36359;41.556;-8.418;2023-03-24T06:04:23;3.50;;;0.63;;
50429;SDS011;36359;41.556;-8.418;2023-03-24T06:06:52;2.75;;;0.40;;
50429;SDS011;36359;41.556;-8.418;2023-03-24T06:09:25;2.33;;;0.50;;
50429;SDS011;36359;41.556;-8.418;2023-03-24T06:12:01;3.80;;;0.40;;
50429;SDS011;36359;41.556;-8.418;2023-03-24T06:14:31;2.90;;;0.40;;
50429;SDS011;36359;41.556;-8.418;2023-03-24T06:17:06;2.08;;;0.57;;
50429;SDS011;36359;41.556;-8.418;2023-03-24T06:19:32;2.88;;;0.50;;
50429;SDS011;36359;41.556;-8.418;2023-03-24T06:22:11;2.67;;;0.50;;
50429;SDS011;36359;41.556;-8.418;2023-03-24T06:24:38;1.45;;;0.40;;
50429;SDS011;36359;41.556;-8.418;2023-03-24T06:27:07;4.47;;;0.60;;
50429;SDS011;36359;41.556;-8.418;2023-03-24T06:29:34;2.15;;;0.60;;
50429;SDS011;36359;41.556;-8.418;2023-03-24T06:32:01;4.32;;;0.70;;
50429;SDS011;36359;41.556;-8.418;2023-03-24T06:34:30;1.95;;;0.40;;
50429;SDS011;36359;41.556;-8.418;2023-03-24T06:37:14;2.42;;;0.43;;
50429;SDS011;36359;41.556;-8.418;2023-03-24T06:39:40;3.92;;;0.52;;
50429;SDS011;36359;41.556;-8.418;2023-03-24T06:42:08;2.60;;;0.43;;
50429;SDS011;36359;41.556;-8.418;2023-03-24T06:44:34;3.22;;;0.70;;
50429;SDS011;36359;41.556;-8.418;2023-03-24T06:47:00;7.78;;;6.30;;
50429;SDS011;36359;41.556;-8.418;2023-03-24T06:49:25;8.45;;;7.32;;
50429;SDS011;36359;41.556;-8.418;2023-03-24T06:51:51;9.27;;;6.82;;
50429;SDS011;36359;41.556;-8.418;2023-03-24T06:54:19;8.02;;;6.47;;
50429;SDS011;36359;41.556;-8.418;2023-03-24T06:56:46;8.15;;;6.18;;
50429;SDS011;36359;41.556;-8.418;2023-03-24T06:59:12;10.63;;;9.35;;
50429;SDS011;36359;41.556;-8.418;2023-03-24T07:01:38;13.68;;;10.32;;
50429;SDS011;36359;41.556;-8.418;2023-03-24T07:04:19;13.45;;;8.80;;
50429;SDS011;36359;41.556;-8.418;2023-03-24T07:07:01;7.55;;;5.75;;
50429;SDS011;36359;41.556;-8.418;2023-03-24T07:09:28;7.35;;;5.43;;
50429;SDS011;36359;41.556;-8.418;2023-03-24T07:11:54;8.40;;;4.43;;
50429;SDS011;36359;41.556;-8.418;2023-03-24T07:14:19;6.65;;;3.15;;
50429;SDS011;36359;41.556;-8.418;2023-03-24T07:16:47;5.07;;;2.00;;
50429;SDS011;36359;41.556;-8.418;2023-03-24T07:19:42;5.47;;;2.05;;
50429;SDS011;36359;41.556;-8.418;2023-03-24T07:22:32;3.80;;;1.40;;
50429;SDS011;36359;41.556;-8.418;2023-03-24T07:25:31;5.38;;;1.95;;
50429;SDS011;36359;41.556;-8.418;2023-03-24T07:28:18;6.80;;;1.77;;
50429;SDS011;36359;41.556;-8.418;2023-03-24T07:30:44;5.75;;;1.65;;
50429;SDS011;36359;41.556;-8.418;2023-03-24T07:33:11;3.85;;;1.70;;
50429;SDS011;36359;41.556;-8.418;2023-03-24T07:35:38;9.63;;;2.40;;
50429;SDS011;36359;41.556;-8.418;2023-03-24T07:38:05;9.57;;;4.13;;
50429;SDS011;36359;41.556;-8.418;2023-03-24T07:40:31;5.70;;;3.05;;
50429;SDS011;36359;41.556;-8.418;2023-03-24T07:42:59;7.45;;;3.60;;
50429;SDS011;36359;41.556;-8.418;2023-03-24T07:45:57;7.05;;;2.88;;
50429;SDS011;36359;41.556;-8.418;2023-03-24T07:48:26;7.63;;;3.50;;
50429;SDS011;36359;41.556;-8.418;2023-03-24T07:50:52;8.07;;;3.13;;
50429;SDS011;36359;41.556;-8.418;2023-03-24T07:53:41;7.88;;;2.65;;
50429;SDS011;36359;41.556;-8.418;2023-03-24T07:56:11;7.38;;;2.75;;
50429;SDS011;36359;41.556;-8.418;2023-03-24T07:58:46;6.05;;;1.55;;
50429;SDS011;36359;41.556;-8.418;2023-03-24T08:01:22;6.78;;;1.40;;
50429;SDS011;36359;41.556;-8.418;2023-03-24T08:03:53;6.05;;;2.83;;
50429;SDS011;36359;41.556;-8.418;2023-03-24T08:06:41;6.68;;;4.07;;
50429;SDS011;36359;41.556;-8.418;2023-03-24T08:09:07;8.88;;;3.85;;
50429;SDS011;36359;41.556;-8.418;2023-03-24T08:11:39;5.82;;;2.85;;
50429;SDS011;36359;41.556;-8.418;2023-03-24T08:14:08;8.60;;;3.80;;
50429;SDS011;36359;41.556;-8.418;2023-03-24T08:16:35;14.82;;;3.38;;
50429;SDS011;36359;41.556;-8.418;2023-03-24T08:19:03;11.10;;;4.20;;
50429;SDS011;36359;41.556;-8.418;2023-03-24T08:21:30;7.70;;;4.50;;
50429;SDS011;36359;41.556;-8.418;2023-03-24T08:23:59;18.52;;;8.93;;
50429;SDS011;36359;41.556;-8.418;2023-03-24T08:26:35;12.18;;;5.82;;
50429;SDS011;36359;41.556;-8.418;2023-03-24T08:29:02;12.15;;;5.88;;
50429;SDS011;36359;41.556;-8.418;2023-03-24T08:31:35;10.65;;;4.68;;
50429;SDS011;36359;41.556;-8.418;2023-03-24T08:34:02;10.52;;;3.95;;
50429;SDS011;36359;41.556;-8.418;2023-03-24T08:36:36;7.32;;;2.65;;
50429;SDS011;36359;41.556;-8.418;2023-03-24T08:39:02;3.03;;;1.52;;
50429;SDS011;36359;41.556;-8.418;2023-03-24T08:41:36;9.57;;;1.83;;
50429;SDS011;36359;41.556;-8.418;2023-03-24T08:44:02;6.90;;;1.98;;
50429;SDS011;36359;41.556;-8.418;2023-03-24T08:46:31;6.75;;;1.90;;
50429;SDS011;36359;41.556;-8.418;2023-03-24T08:48:58;9.70;;;1.95;;
50429;SDS011;36359;41.556;-8.418;2023-03-24T08:51:25;9.73;;;1.65;;
50429;SDS011;36359;41.556;-8.418;2023-03-24T08:53:51;8.55;;;2.08;;
50429;SDS011;36359;41.556;-8.418;2023-03-24T08:56:18;9.77;;;1.92;;
50429;SDS011;36359;41.556;-8.418;2023-03-24T08:58:45;13.05;;;3.15;;
50429;SDS011;36359;41.556;-8.418;2023-03-24T09:01:19;4.00;;;1.45;;
50429;SDS011;36359;41.556;-8.418;2023-03-24T09:03:45;11.20;;;2.03;;
50429;SDS011;36359;41.556;-8.418;2023-03-24T09:06:11;16.67;;;5.40;;
50429;SDS011;36359;41.556;-8.418;2023-03-24T09:08:38;21.23;;;6.38;;
50429;SDS011;36359;41.556;-8.418;2023-03-24T09:11:05;14.40;;;3.75;;
50429;SDS011;36359;41.556;-8.418;2023-03-24T09:13:31;13.90;;;3.28;;
50429;SDS011;36359;41.556;-8.418;2023-03-24T09:15:59;15.40;;;3.83;;
50429;SDS011;36359;41.556;-8.418;2023-03-24T09:18:35;12.70;;;2.70;;
50429;SDS011;36359;41.556;-8.418;2023-03-24T09:21:47;13.82;;;2.80;;
50429;SDS011;36359;41.556;-8.418;2023-03-24T09:24:23;12.67;;;3.10;;
50429;SDS011;36359;41.556;-8.418;2023-03-24T09:26:49;17.88;;;3.30;;
50429;SDS011;36359;41.556;-8.418;2023-03-24T09:29:15;13.13;;;3.55;;
50429;SDS011;36359;41.556;-8.418;2023-03-24T09:31:40;13.95;;;2.97;;
50429;SDS011;36359;41.556;-8.418;2023-03-24T09:34:06;7.95;;;2.15;;
50429;SDS011;36359;41.556;-8.418;2023-03-24T09:36:32;6.82;;;2.42;;
50429;SDS011;36359;41.556;-8.418;2023-03-24T09:38:58;14.10;;;3.10;;
50429;SDS011;36359;41.556;-8.418;2023-03-24T09:41:28;9.75;;;2.35;;
50429;SDS011;36359;41.556;-8.418;2023-03-24T09:43:59;9.82;;;2.20;;
50429;SDS011;36359;41.556;-8.418;2023-03-24T09:46:34;20.05;;;5.20;;
50429;SDS011;36359;41.556;-8.418;2023-03-24T09:51:32;7.15;;;2.22;;
50429;SDS011;36359;41.556;-8.418;2023-03-24T09:56:32;9.35;;;2.00;;
50429;SDS011;36359;41.556;-8.418;2023-03-24T09:59:03;14.48;;;2.25;;
50429;SDS011;36359;41.556;-8.418;2023-03-24T10:01:32;7.80;;;2.05;;
50429;SDS011;36359;41.556;-8.418;2023-03-24T10:03:59;7.57;;;1.90;;
50429;SDS011;36359;41.556;-8.418;2023-03-24T10:22:57;13.07;;;2.50;;
50429;SDS011;36359;41.556;-8.418;2023-03-24T10:28:34;10.45;;;2.72;;
50429;SDS011;36359;41.556;-8.418;2023-03-24T10:31:20;16.92;;;5.60;;
50429;SDS011;36359;41.556;-8.418;2023-03-24T10:33:52;19.88;;;7.60;;
50429;SDS011;36359;41.556;-8.418;2023-03-24T10:36:22;19.88;;;5.60;;
50429;SDS011;36359;41.556;-8.418;2023-03-24T10:38:56;13.40;;;3.65;;
50429;SDS011;36359;41.556;-8.418;2023-03-24T10:41:23;13.93;;;3.30;;
50429;SDS011;36359;41.556;-8.418;2023-03-24T10:43:53;13.75;;;3.13;;
50429;SDS011;36359;41.556;-8.418;2023-03-24T10:46:24;11.85;;;2.85;;
50429;SDS011;36359;41.556;-8.418;2023-03-24T10:49:08;10.32;;;2.53;;
50429;SDS011;36359;41.556;-8.418;2023-03-24T10:51:34;10.80;;;3.03;;
50429;SDS011;36359;41.556;-8.418;2023-03-24T10:54:11;11.55;;;2.92;;
50429;SDS011;36359;41.556;-8.418;2023-03-24T10:57:03;11.48;;;2.33;;
50429;SDS011;36359;41.556;-8.418;2023-03-24T10:59:53;12.93;;;2.72;;
50429;SDS011;36359;41.556;-8.418;2023-03-24T11:04:57;13.88;;;3.40;;
50429;SDS011;36359;41.556;-8.418;2023-03-24T11:07:48;13.43;;;2.45;;
50429;SDS011;36359;41.556;-8.418;2023-03-24T11:10:25;10.65;;;2.92;;
50429;SDS011;36359;41.556;-8.418;2023-03-24T11:17:53;18.92;;;3.08;;
50429;SDS011;36359;41.556;-8.418;2023-03-24T11:20:38;20.20;;;5.20;;
50429;SDS011;36359;41.556;-8.418;2023-03-24T11:26:15;23.23;;;5.10;;
50429;SDS011;36359;41.556;-8.418;2023-03-24T11:29:11;17.52;;;4.68;;
50429;SDS011;36359;41.556;-8.418;2023-03-24T11:31:40;26.10;;;5.25;;
50429;SDS011;36359;41.556;-8.418;2023-03-24T11:34:09;22.23;;;5.88;;
50429;SDS011;36359;41.556;-8.418;2023-03-24T11:37:04;21.58;;;4.05;;
50429;SDS011;36359;41.556;-8.418;2023-03-24T11:39:38;20.92;;;4.45;;
50429;SDS011;36359;41.556;-8.418;2023-03-24T11:44:51;21.65;;;4.97;;
50429;SDS011;36359;41.556;-8.418;2023-03-24T11:47:31;16.25;;;3.80;;
50429;SDS011;36359;41.556;-8.418;2023-03-24T11:52:38;22.08;;;4.05;;
50429;SDS011;36359;41.556;-8.418;2023-03-24T11:55:16;18.88;;;3.90;;
50429;SDS011;36359;41.556;-8.418;2023-03-24T11:58:01;19.42;;;3.83;;
50429;SDS011;36359;41.556;-8.418;2023-03-24T12:01:18;16.23;;;3.95;;
50429;SDS011;36359;41.556;-8.418;2023-03-24T12:03:51;16.85;;;3.88;;
50429;SDS011;36359;41.556;-8.418;2023-03-24T12:06:29;15.70;;;3.45;;
50429;SDS011;36359;41.556;-8.418;2023-03-24T12:28:51;14.13;;;4.28;;
50429;SDS011;36359;41.556;-8.418;2023-03-24T12:36:54;23.10;;;3.78;;
50429;SDS011;36359;41.556;-8.418;2023-03-24T12:39:26;14.75;;;3.50;;
50429;SDS011;36359;41.556;-8.418;2023-03-24T12:54:31;18.27;;;2.55;;
50429;SDS011;36359;41.556;-8.418;2023-03-24T12:57:18;13.40;;;3.72;;
50429;SDS011;36359;41.556;-8.418;2023-03-24T12:59:51;11.05;;;2.50;;
50429;SDS011;36359;41.556;-8.418;2023-03-24T13:05:17;11.75;;;2.95;;
50429;SDS011;36359;41.556;-8.418;2023-03-24T13:07:47;17.23;;;3.85;;
50429;SDS011;36359;41.556;-8.418;2023-03-24T13:10:20;17.73;;;3.08;;
50429;SDS011;36359;41.556;-8.418;2023-03-24T13:12:53;16.60;;;2.58;;
50429;SDS011;36359;41.556;-8.418;2023-03-24T13:15:55;14.55;;;3.40;;
50429;SDS011;36359;41.556;-8.418;2023-03-24T13:21:05;17.05;;;3.00;;
50429;SDS011;36359;41.556;-8.418;2023-03-24T13:31:18;13.43;;;3.42;;
50429;SDS011;36359;41.556;-8.418;2023-03-24T13:33:46;15.23;;;3.83;;
50429;SDS011;36359;41.556;-8.418;2023-03-24T13:39:10;11.27;;;3.53;;
50429;SDS011;36359;41.556;-8.418;2023-03-24T13:41:48;12.45;;;2.78;;
50429;SDS011;36359;41.556;-8.418;2023-03-24T13:44:23;13.95;;;2.20;;
50429;SDS011;36359;41.556;-8.418;2023-03-24T13:46:58;12.23;;;2.13;;
50429;SDS011;36359;41.556;-8.418;2023-03-24T13:49:30;15.02;;;1.90;;
50429;SDS011;36359;41.556;-8.418;2023-03-24T13:52:01;11.30;;;2.63;;
50429;SDS011;36359;41.556;-8.418;2023-03-24T13:54:28;12.90;;;2.38;;
50429;SDS011;36359;41.556;-8.418;2023-03-24T14:02:39;13.68;;;2.67;;
50429;SDS011;36359;41.556;-8.418;2023-03-24T14:10:47;13.05;;;2.70;;
50429;SDS011;36359;41.556;-8.418;2023-03-24T14:15:50;10.75;;;2.38;;
50429;SDS011;36359;41.556;-8.418;2023-03-24T14:23:18;11.77;;;1.92;;
50429;SDS011;36359;41.556;-8.418;2023-03-24T14:26:03;12.45;;;2.35;;
50429;SDS011;36359;41.556;-8.418;2023-03-24T14:36:28;8.02;;;2.08;;
50429;SDS011;36359;41.556;-8.418;2023-03-24T14:41:39;9.40;;;1.83;;
50429;SDS011;36359;41.556;-8.418;2023-03-24T14:44:06;10.38;;;1.70;;
50429;SDS011;36359;41.556;-8.418;2023-03-24T14:54:47;13.05;;;2.15;;
50429;SDS011;36359;41.556;-8.418;2023-03-24T14:57:20;7.00;;;1.60;;
50429;SDS011;36359;41.556;-8.418;2023-03-24T15:00:01;9.70;;;1.95;;
50429;SDS011;36359;41.556;-8.418;2023-03-24T15:02:41;7.22;;;2.50;;
50429;SDS011;36359;41.556;-8.418;2023-03-24T15:13:03;10.10;;;2.63;;
50429;SDS011;36359;41.556;-8.418;2023-03-24T15:15:29;12.75;;;2.63;;
50429;SDS011;36359;41.556;-8.418;2023-03-24T15:17:55;13.70;;;2.45;;
50429;SDS011;36359;41.556;-8.418;2023-03-24T15:20:27;12.68;;;2.63;;
50429;SDS011;36359;41.556;-8.418;2023-03-24T15:23:04;10.35;;;2.00;;
50429;SDS011;36359;41.556;-8.418;2023-03-24T15:25:31;16.23;;;2.53;;
50429;SDS011;36359;41.556;-8.418;2023-03-24T15:27:57;10.57;;;2.38;;
50429;SDS011;36359;41.556;-8.418;2023-03-24T15:30:23;13.23;;;2.03;;
50429;SDS011;36359;41.556;-8.418;2023-03-24T15:32:50;15.05;;;2.67;;
50429;SDS011;36359;41.556;-8.418;2023-03-24T15:35:17;9.40;;;2.33;;
50429;SDS011;36359;41.556;-8.418;2023-03-24T15:37:48;11.15;;;3.17;;
50429;SDS011;36359;41.556;-8.418;2023-03-24T15:42:51;12.80;;;2.40;;
50429;SDS011;36359;41.556;-8.418;2023-03-24T15:45:22;10.07;;;2.10;;
50429;SDS011;36359;41.556;-8.418;2023-03-24T15:47:52;10.80;;;3.20;;
50429;SDS011;36359;41.556;-8.418;2023-03-24T15:53:38;10.60;;;3.22;;
50429;SDS011;36359;41.556;-8.418;2023-03-24T16:01:18;10.93;;;2.22;;
50429;SDS011;36359;41.556;-8.418;2023-03-24T16:03:49;9.35;;;2.88;;
50429;SDS011;36359;41.556;-8.418;2023-03-24T16:06:22;10.80;;;2.38;;
50429;SDS011;36359;41.556;-8.418;2023-03-24T16:08:53;14.65;;;2.78;;
50429;SDS011;36359;41.556;-8.418;2023-03-24T16:11:23;13.27;;;2.30;;
50429;SDS011;36359;41.556;-8.418;2023-03-24T16:13:49;9.70;;;2.05;;
50429;SDS011;36359;41.556;-8.418;2023-03-24T16:18:42;12.07;;;2.40;;
50429;SDS011;36359;41.556;-8.418;2023-03-24T16:23:44;12.30;;;2.40;;
50429;SDS011;36359;41.556;-8.418;2023-03-24T16:26:11;12.38;;;1.90;;
50429;SDS011;36359;41.556;-8.418;2023-03-24T16:28:37;5.97;;;1.55;;
50429;SDS011;36359;41.556;-8.418;2023-03-24T16:31:03;14.00;;;2.65;;
50429;SDS011;36359;41.556;-8.418;2023-03-24T16:33:30;11.13;;;2.05;;
50429;SDS011;36359;41.556;-8.418;2023-03-24T16:35:57;11.63;;;2.35;;
50429;SDS011;36359;41.556;-8.418;2023-03-24T16:38:24;8.85;;;2.80;;
50429;SDS011;36359;41.556;-8.418;2023-03-24T16:40:52;9.00;;;2.03;;
50429;SDS011;36359;41.556;-8.418;2023-03-24T16:45:48;11.95;;;2.20;;
50429;SDS011;36359;41.556;-8.418;2023-03-24T16:48:15;7.65;;;2.40;;
50429;SDS011;36359;41.556;-8.418;2023-03-24T16:50:45;12.95;;;2.38;;
50429;SDS011;36359;41.556;-8.418;2023-03-24T16:53:15;12.55;;;2.78;;
50429;SDS011;36359;41.556;-8.418;2023-03-24T16:55:42;11.48;;;2.67;;
50429;SDS011;36359;41.556;-8.418;2023-03-24T16:58:12;9.52;;;2.28;;
50429;SDS011;36359;41.556;-8.418;2023-03-24T17:00:40;12.98;;;3.10;;
50429;SDS011;36359;41.556;-8.418;2023-03-24T17:03:08;12.68;;;2.90;;
50429;SDS011;36359;41.556;-8.418;2023-03-24T17:05:36;11.63;;;2.95;;
50429;SDS011;36359;41.556;-8.418;2023-03-24T17:08:05;9.43;;;2.70;;
50429;SDS011;36359;41.556;-8.418;2023-03-24T17:10:31;21.88;;;7.47;;
50429;SDS011;36359;41.556;-8.418;2023-03-24T17:12:57;14.02;;;4.15;;
50429;SDS011;36359;41.556;-8.418;2023-03-24T17:15:24;16.08;;;3.85;;
50429;SDS011;36359;41.556;-8.418;2023-03-24T17:17:52;23.75;;;9.80;;
50429;SDS011;36359;41.556;-8.418;2023-03-24T17:20:18;11.75;;;4.50;;
50429;SDS011;36359;41.556;-8.418;2023-03-24T17:22:48;11.07;;;2.95;;
50429;SDS011;36359;41.556;-8.418;2023-03-24T17:25:16;11.40;;;5.00;;
50429;SDS011;36359;41.556;-8.418;2023-03-24T17:27:46;10.60;;;3.65;;
50429;SDS011;36359;41.556;-8.418;2023-03-24T17:30:14;9.40;;;2.55;;
50429;SDS011;36359;41.556;-8.418;2023-03-24T17:32:42;12.32;;;2.70;;
50429;SDS011;36359;41.556;-8.418;2023-03-24T17:35:09;8.55;;;2.65;;
50429;SDS011;36359;41.556;-8.418;2023-03-24T17:37:37;12.20;;;2.80;;
50429;SDS011;36359;41.556;-8.418;2023-03-24T17:40:03;9.07;;;3.05;;
50429;SDS011;36359;41.556;-8.418;2023-03-24T17:42:37;18.25;;;8.52;;
50429;SDS011;36359;41.556;-8.418;2023-03-24T17:45:04;10.18;;;2.70;;
50429;SDS011;36359;41.556;-8.418;2023-03-24T17:47:32;10.13;;;2.60;;
50429;SDS011;36359;41.556;-8.418;2023-03-24T17:49:57;7.80;;;2.30;;
50429;SDS011;36359;41.556;-8.418;2023-03-24T17:52:23;9.93;;;2.60;;
50429;SDS011;36359;41.556;-8.418;2023-03-24T17:54:49;10.07;;;2.25;;
50429;SDS011;36359;41.556;-8.418;2023-03-24T17:57:15;14.02;;;2.85;;
50429;SDS011;36359;41.556;-8.418;2023-03-24T17:59:41;11.95;;;3.08;;
50429;SDS011;36359;41.556;-8.418;2023-03-24T18:02:09;11.07;;;3.03;;
50429;SDS011;36359;41.556;-8.418;2023-03-24T18:04:36;13.30;;;2.97;;
50429;SDS011;36359;41.556;-8.418;2023-03-24T18:07:02;13.57;;;3.20;;
50429;SDS011;36359;41.556;-8.418;2023-03-24T18:09:31;16.83;;;4.70;;
50429;SDS011;36359;41.556;-8.418;2023-03-24T18:11:57;14.18;;;3.03;;
50429;SDS011;36359;41.556;-8.418;2023-03-24T18:14:23;12.05;;;2.88;;
50429;SDS011;36359;41.556;-8.418;2023-03-24T18:16:50;13.75;;;2.45;;
50429;SDS011;36359;41.556;-8.418;2023-03-24T18:19:15;15.25;;;2.97;;
50429;SDS011;36359;41.556;-8.418;2023-03-24T18:21:41;18.13;;;3.88;;
50429;SDS011;36359;41.556;-8.418;2023-03-24T18:24:08;14.73;;;4.00;;
50429;SDS011;36359;41.556;-8.418;2023-03-24T18:26:34;11.27;;;2.40;;